Time;durP1;ratioP1;P1;durP2;ratioP2;P2;SDS_P1;SDS_P2;PMS_P1;PMS_P2;Temp;Humidity;BMP_temperature;BMP_pressure;BME280_temperature;BME280_humidity;BME280_pressure;Samples;Min_cycle;Max_cycle;Signal;HPM_P1;HPM_P2
2022/09/24 00:01:27;;;;;;;6.40;1.42;;;15.40;56.00;;;;;;5053995;28;20098;-76
2022/09/24 00:04:04;;;;;;;4.32;1.00;;;15.40;56.10;;;;;;5054705;28;20108;-77
2022/09/24 00:06:35;;;;;;;1.33;0.60;;;15.40;56.20;;;;;;5053642;28;20045;-76
2022/09/24 00:09:03;;;;;;;3.25;1.38;;;15.40;56.30;;;;;;5049984;28;20049;-76
2022/09/24 00:11:31;;;;;;;2.25;0.73;;;15.30;56.20;;;;;;5044665;28;20055;-75
2022/09/24 00:13:58;;;;;;;3.22;1.15;;;15.30;56.30;;;;;;5039280;28;20094;-76
2022/09/24 00:16:26;;;;;;;2.40;0.88;;;15.30;56.40;;;;;;5051473;28;20074;-76
2022/09/24 00:18:54;;;;;;;2.03;1.13;;;15.20;56.30;;;;;;5056560;28;20044;-76
2022/09/24 00:21:22;;;;;;;2.00;0.70;;;15.20;56.40;;;;;;5041578;28;20048;-76
2022/09/24 00:23:51;;;;;;;5.55;1.02;;;15.20;56.60;;;;;;5052873;28;20017;-78
2022/09/24 00:29:07;;;;;;;1.48;0.85;;;15.10;56.60;;;;;;5041498;28;20029;-76
2022/09/24 00:31:34;;;;;;;1.02;0.70;;;15.10;56.70;;;;;;5061052;28;20488;-76
2022/09/24 00:34:01;;;;;;;2.22;0.88;;;15.00;56.70;;;;;;5036840;28;20032;-75
2022/09/24 00:36:28;;;;;;;3.20;1.35;;;15.00;56.80;;;;;;5057776;28;20037;-76
2022/09/24 00:38:57;;;;;;;2.72;1.08;;;15.00;57.00;;;;;;5039896;28;20086;-77
2022/09/24 00:41:28;;;;;;;3.03;0.95;;;15.00;57.10;;;;;;5060127;28;20052;-77
2022/09/24 00:43:55;;;;;;;2.97;0.75;;;15.00;57.20;;;;;;5042656;28;20029;-77
2022/09/24 00:46:26;;;;;;;2.95;0.80;;;14.90;57.00;;;;;;5055490;28;20037;-79
2022/09/24 00:49:10;;;;;;;2.10;0.75;;;14.90;57.20;;;;;;5054858;28;20020;-76
2022/09/24 00:51:40;;;;;;;1.77;0.68;;;14.90;57.30;;;;;;5052145;28;20037;-77
2022/09/24 00:54:11;;;;;;;2.95;0.90;;;14.90;57.30;;;;;;5052120;28;20025;-77
2022/09/24 00:56:40;;;;;;;1.50;0.55;;;14.90;57.40;;;;;;5059256;28;20037;-77
2022/09/24 00:59:10;;;;;;;2.85;0.85;;;14.90;57.50;;;;;;5041889;28;20029;-77
2022/09/24 01:01:38;;;;;;;3.03;0.80;;;14.90;57.60;;;;;;5053312;28;20037;-76
2022/09/24 01:04:06;;;;;;;1.92;1.02;;;14.80;57.50;;;;;;5049414;28;20055;-77
2022/09/24 01:06:32;;;;;;;2.08;0.60;;;14.80;57.50;;;;;;5052699;28;20103;-77
2022/09/24 01:08:59;;;;;;;2.28;0.60;;;14.80;58.10;;;;;;5056776;28;20040;-76
2022/09/24 01:11:48;;;;;;;3.25;0.90;;;14.80;57.70;;;;;;5049478;28;20040;-77
2022/09/24 01:14:43;;;;;;;2.55;1.00;;;14.80;57.80;;;;;;5051537;28;20035;-77
2022/09/24 01:17:09;;;;;;;2.38;0.98;;;14.80;57.90;;;;;;5047316;28;20032;-76
2022/09/24 01:19:47;;;;;;;2.35;0.88;;;14.70;57.70;;;;;;5054378;28;20033;-77
2022/09/24 01:23:04;;;;;;;1.65;0.57;;;14.80;58.00;;;;;;5032349;28;20056;-77
2022/09/24 01:25:58;;;;;;;2.72;0.90;;;14.70;58.00;;;;;;5046489;28;20028;-77
2022/09/24 01:28:49;;;;;;;1.83;0.93;;;14.70;58.00;;;;;;5042437;28;20096;-76
2022/09/24 01:31:32;;;;;;;1.30;0.87;;;14.60;57.90;;;;;;5049200;28;20025;-78
2022/09/24 01:34:04;;;;;;;3.95;1.42;;;14.60;58.00;;;;;;5048542;28;20039;-75
2022/09/24 01:36:34;;;;;;;1.88;0.70;;;14.60;58.60;;;;;;5032430;28;20550;-77
2022/09/24 01:39:02;;;;;;;2.10;0.93;;;14.50;58.00;;;;;;5047600;28;20086;-77
2022/09/24 01:41:28;;;;;;;1.58;0.70;;;14.50;58.10;;;;;;5044904;28;20045;-76
2022/09/24 01:43:54;;;;;;;3.17;1.15;;;14.50;58.20;;;;;;5048114;28;20033;-75
2022/09/24 01:46:21;;;;;;;2.65;0.88;;;14.50;58.30;;;;;;5042858;28;20044;-76
2022/09/24 01:48:48;;;;;;;2.40;1.20;;;14.50;58.40;;;;;;5050152;28;20021;-77
2022/09/24 01:51:36;;;;;;;3.38;0.90;;;14.50;58.50;;;;;;5048823;28;20057;-77
2022/09/24 01:54:33;;;;;;;2.42;0.90;;;14.40;58.50;;;;;;5046867;28;20603;-77
2022/09/24 01:57:14;;;;;;;2.15;0.98;;;14.40;58.60;;;;;;5050893;28;20033;-76
2022/09/24 02:00:08;;;;;;;1.73;1.00;;;14.40;58.50;;;;;;5052756;28;20029;-76
2022/09/24 02:03:04;;;;;;;1.17;0.65;;;14.30;58.50;;;;;;5063443;28;20037;-78
2022/09/24 02:05:33;;;;;;;2.75;1.02;;;14.30;58.50;;;;;;5054948;28;20098;-76
2022/09/24 02:08:10;;;;;;;2.70;0.90;;;14.30;58.60;;;;;;5048049;28;20033;-76
2022/09/24 02:10:47;;;;;;;2.85;1.05;;;14.20;58.50;;;;;;5051291;28;20464;-77
2022/09/24 02:13:16;;;;;;;2.08;0.90;;;14.20;58.50;;;;;;5033055;28;20025;-77
2022/09/24 02:15:49;;;;;;;2.55;0.90;;;14.10;58.40;;;;;;5051746;28;20035;-77
2022/09/24 02:18:18;;;;;;;2.92;0.80;;;14.10;58.60;;;;;;5045933;28;20101;-77
2022/09/24 02:20:45;;;;;;;4.25;0.93;;;14.10;58.70;;;;;;5051132;28;20063;-77
2022/09/24 02:23:14;;;;;;;2.35;0.95;;;14.00;58.50;;;;;;5034401;28;20127;-76
2022/09/24 02:25:50;;;;;;;5.28;1.00;;;14.00;58.60;;;;;;5051080;28;20128;-76
2022/09/24 02:28:18;;;;;;;4.47;1.00;;;13.90;58.60;;;;;;5053623;28;20028;-77
2022/09/24 02:30:51;;;;;;;1.67;1.23;;;13.90;58.60;;;;;;5057874;28;20480;-76
2022/09/24 02:36:08;;;;;;;3.45;0.90;;;13.80;58.60;;;;;;5046235;28;20387;-77
2022/09/24 02:38:33;;;;;;;3.75;1.13;;;13.70;58.40;;;;;;5053143;28;20036;-77
2022/09/24 02:41:00;;;;;;;3.65;1.45;;;13.60;58.30;;;;;;5053858;28;20143;-78
2022/09/24 02:43:26;;;;;;;1.88;0.95;;;13.60;58.50;;;;;;5059987;28;20697;-76
2022/09/24 02:45:53;;;;;;;1.77;1.20;;;13.50;58.40;;;;;;5050437;28;20110;-77
2022/09/24 02:48:18;;;;;;;1.85;0.70;;;13.50;58.60;;;;;;5049884;28;20126;-78
2022/09/24 02:50:45;;;;;;;2.42;1.10;;;13.40;58.50;;;;;;5049594;28;20448;-77
2022/09/24 02:53:11;;;;;;;1.23;0.85;;;13.40;58.60;;;;;;5052634;28;20052;-78
2022/09/24 02:55:37;;;;;;;2.00;1.13;;;13.40;58.60;;;;;;5053226;28;20029;-77
2022/09/24 02:58:03;;;;;;;2.72;0.98;;;13.30;58.50;;;;;;5054741;28;20079;-76
2022/09/24 03:00:29;;;;;;;1.55;1.33;;;13.30;58.60;;;;;;5052970;28;20506;-77
2022/09/24 03:02:55;;;;;;;2.60;1.00;;;13.30;58.70;;;;;;5055094;28;20044;-77
2022/09/24 03:05:21;;;;;;;4.20;1.10;;;13.20;58.50;;;;;;5051067;28;20069;-78
2022/09/24 03:07:47;;;;;;;3.20;1.20;;;13.20;58.60;;;;;;5051976;28;20025;-76
2022/09/24 03:10:14;;;;;;;1.77;1.20;;;13.20;58.70;;;;;;5053038;28;20085;-77
2022/09/24 03:12:41;;;;;;;3.70;0.85;;;13.10;58.50;;;;;;5050501;28;20025;-78
2022/09/24 03:15:07;;;;;;;0.77;0.77;;;13.00;58.40;;;;;;5060749;28;20029;-77
2022/09/24 03:17:32;;;;;;;1.65;1.00;;;13.00;58.50;;;;;;5063636;28;20391;-79
2022/09/24 03:19:58;;;;;;;6.28;1.80;;;13.00;58.60;;;;;;5042704;28;20021;-77
2022/09/24 03:22:24;;;;;;;3.40;1.10;;;12.90;58.50;;;;;;5017369;28;20048;-77
2022/09/24 03:24:50;;;;;;;3.53;1.10;;;12.90;58.50;;;;;;5066862;28;20105;-78
2022/09/24 03:27:20;;;;;;;1.75;1.27;;;12.80;58.40;;;;;;5043836;28;20067;-77
2022/09/24 03:32:32;;;;;;;4.00;1.10;;;12.70;58.40;;;;;;5062533;28;20041;-77
2022/09/24 03:35:00;;;;;;;3.22;1.30;;;12.70;58.50;;;;;;5055258;28;20041;-77
2022/09/24 03:37:26;;;;;;;2.17;1.13;;;12.60;58.30;;;;;;5069657;28;20032;-78
2022/09/24 03:39:54;;;;;;;3.17;1.83;;;12.60;58.50;;;;;;5048937;28;20033;-76
2022/09/24 03:42:21;;;;;;;2.55;1.27;;;12.60;58.50;;;;;;5044893;28;20037;-76
2022/09/24 03:44:47;;;;;;;4.55;1.13;;;12.50;58.40;;;;;;5043401;28;20036;-77
2022/09/24 03:47:14;;;;;;;1.98;1.00;;;12.50;58.50;;;;;;5049124;28;20051;-76
2022/09/24 03:49:41;;;;;;;1.98;0.70;;;12.40;58.40;;;;;;5047216;28;20028;-76
2022/09/24 03:52:07;;;;;;;1.75;0.93;;;12.40;58.50;;;;;;5041109;28;20063;-76
2022/09/24 03:54:33;;;;;;;2.40;0.60;;;12.40;58.50;;;;;;5050149;28;20037;-76
2022/09/24 03:57:00;;;;;;;1.23;0.68;;;12.30;58.40;;;;;;5048390;28;20032;-76
2022/09/24 03:59:26;;;;;;;2.25;1.48;;;12.30;58.50;;;;;;5055710;28;20078;-75
2022/09/24 04:01:52;;;;;;;2.03;0.82;;;12.30;58.60;;;;;;5053001;28;20049;-77
2022/09/24 04:04:18;;;;;;;2.63;0.73;;;12.20;58.50;;;;;;5049423;28;20543;-76
2022/09/24 04:06:46;;;;;;;3.05;1.30;;;12.20;58.60;;;;;;5055790;28;20051;-75
2022/09/24 04:09:13;;;;;;;1.67;1.00;;;12.10;58.50;;;;;;5051853;28;20033;-77
2022/09/24 04:11:41;;;;;;;1.50;0.80;;;12.10;58.50;;;;;;5036141;28;20029;-75
2022/09/24 04:14:08;;;;;;;2.60;1.60;;;12.10;58.60;;;;;;5045311;28;20029;-75
2022/09/24 04:16:35;;;;;;;2.00;1.30;;;12.10;58.70;;;;;;5049696;28;20485;-76
2022/09/24 04:19:01;;;;;;;2.58;1.30;;;12.10;58.70;;;;;;5047125;28;20021;-75
2022/09/24 04:21:27;;;;;;;2.15;0.73;;;12.00;58.60;;;;;;5050367;28;20127;-75
2022/09/24 04:23:53;;;;;;;1.88;1.05;;;12.00;58.70;;;;;;5059438;28;20484;-77
2022/09/24 04:26:19;;;;;;;3.00;1.10;;;12.00;58.70;;;;;;5048698;28;20035;-75
2022/09/24 04:28:45;;;;;;;2.05;1.15;;;12.00;58.70;;;;;;5049471;28;20037;-76
2022/09/24 04:31:12;;;;;;;3.00;1.10;;;12.00;58.80;;;;;;5056622;28;20442;-76
2022/09/24 04:33:38;;;;;;;1.55;0.68;;;12.00;58.90;;;;;;5052161;28;20033;-76
2022/09/24 04:36:04;;;;;;;4.05;1.27;;;12.10;59.10;;;;;;5050231;28;20039;-76
2022/09/24 04:38:29;;;;;;;2.78;1.00;;;12.10;59.10;;;;;;5047529;28;20025;-77
2022/09/24 04:41:07;;;;;;;3.30;1.08;;;12.10;59.10;;;;;;5042643;28;20451;-74
2022/09/24 04:43:35;;;;;;;1.95;1.00;;;12.10;59.20;;;;;;5060521;28;20129;-75
2022/09/24 04:46:03;;;;;;;3.60;1.38;;;12.10;59.20;;;;;;5061791;28;20037;-76
2022/09/24 04:48:30;;;;;;;2.97;1.40;;;12.10;59.20;;;;;;5055890;28;20100;-75
2022/09/24 04:51:02;;;;;;;4.05;0.93;;;12.20;59.50;;;;;;5051919;28;20044;-77
2022/09/24 04:53:28;;;;;;;3.13;0.80;;;12.20;59.50;;;;;;5043965;28;20105;-74
2022/09/24 04:55:53;;;;;;;3.17;1.17;;;12.20;59.60;;;;;;5052363;28;20384;-75
2022/09/24 04:58:21;;;;;;;3.95;1.35;;;12.20;59.60;;;;;;5047793;28;20024;-76
2022/09/24 05:00:47;;;;;;;3.08;1.13;;;12.20;59.70;;;;;;5047805;28;20037;-75
2022/09/24 05:03:15;;;;;;;3.45;0.93;;;12.20;59.70;;;;;;5042884;28;20043;-76
2022/09/24 05:05:41;;;;;;;2.80;1.00;;;12.20;59.80;;;;;;5047998;28;20037;-76
2022/09/24 05:08:07;;;;;;;5.95;1.63;;;12.20;59.80;;;;;;5017063;28;20151;-76
2022/09/24 05:10:33;;;;;;;3.03;1.02;;;12.20;59.80;;;;;;5029062;28;20033;-75
2022/09/24 05:12:59;;;;;;;3.28;0.98;;;12.30;60.10;;;;;;5050400;28;20040;-76
2022/09/24 05:15:26;;;;;;;5.90;1.10;;;12.20;59.90;;;;;;5049867;28;20045;-77
2022/09/24 05:17:53;;;;;;;3.03;0.90;;;12.20;60.00;;;;;;5044480;28;20062;-78
2022/09/24 05:20:19;;;;;;;4.13;1.30;;;12.20;60.00;;;;;;5048429;28;20029;-75
2022/09/24 05:22:48;;;;;;;4.65;0.70;;;12.20;60.10;;;;;;5043577;28;20390;-75
2022/09/24 05:25:18;;;;;;;2.45;0.85;;;12.20;60.20;;;;;;5050746;28;20649;-75
2022/09/24 05:27:45;;;;;;;2.00;0.82;;;12.20;60.20;;;;;;5044261;28;20033;-75
2022/09/24 05:30:12;;;;;;;3.20;0.80;;;12.20;60.30;;;;;;5051111;28;20118;-75
2022/09/24 05:32:38;;;;;;;3.25;1.45;;;12.10;60.20;;;;;;5049439;28;20033;-77
2022/09/24 05:35:07;;;;;;;3.63;1.15;;;12.10;60.20;;;;;;5027860;28;20473;-77
2022/09/24 05:37:37;;;;;;;2.38;1.08;;;12.00;60.10;;;;;;5050623;28;20029;-77
2022/09/24 05:42:50;;;;;;;4.68;1.20;;;12.00;60.10;;;;;;5041634;28;20045;-78
2022/09/24 05:45:17;;;;;;;5.68;2.03;;;12.00;60.10;;;;;;5049406;28;20021;-76
2022/09/24 05:47:45;;;;;;;2.08;1.02;;;12.00;60.20;;;;;;5052755;28;20044;-77
2022/09/24 05:50:12;;;;;;;5.03;1.30;;;11.90;60.10;;;;;;5019077;28;20059;-78
2022/09/24 05:52:39;;;;;;;4.32;1.33;;;11.90;60.10;;;;;;5050461;28;20040;-75
2022/09/24 05:55:06;;;;;;;4.47;1.20;;;11.90;60.20;;;;;;5046287;28;20032;-76
2022/09/24 05:57:33;;;;;;;1.75;0.80;;;11.90;60.30;;;;;;5049918;28;20575;-76
2022/09/24 06:00:00;;;;;;;2.85;1.20;;;11.90;60.30;;;;;;5050859;28;20021;-77
2022/09/24 06:02:26;;;;;;;3.22;1.40;;;11.90;60.30;;;;;;5033886;28;20037;-76
2022/09/24 06:04:52;;;;;;;2.45;2.20;;;11.80;60.30;;;;;;5035850;28;20036;-81
2022/09/24 06:07:21;;;;;;;3.28;1.48;;;11.90;60.50;;;;;;5055248;28;20033;-84
2022/09/24 06:09:49;;;;;;;4.97;1.60;;;11.90;60.60;;;;;;5055304;28;20575;-86
2022/09/24 06:12:16;;;;;;;5.78;2.20;;;12.00;60.90;;;;;;5050494;28;20590;-77
2022/09/24 06:14:42;;;;;;;9.30;2.88;;;12.00;61.20;;;;;;5047567;28;20033;-78
2022/09/24 06:17:09;;;;;;;2.38;1.38;;;12.10;61.60;;;;;;5049453;28;20039;-78
2022/09/24 06:19:35;;;;;;;4.28;1.40;;;12.20;61.60;;;;;;5049090;28;20033;-77
2022/09/24 06:22:01;;;;;;;8.25;2.28;;;12.30;61.70;;;;;;5045350;28;20404;-78
2022/09/24 06:24:27;;;;;;;4.45;1.20;;;12.40;61.80;;;;;;5053729;28;20275;-77
2022/09/24 06:26:53;;;;;;;2.95;1.33;;;12.40;61.70;;;;;;5053206;28;20041;-78
2022/09/24 06:29:19;;;;;;;5.03;1.23;;;12.40;61.70;;;;;;5049819;28;20033;-78
2022/09/24 06:31:46;;;;;;;4.85;1.30;;;12.40;61.70;;;;;;5047628;28;20029;-77
2022/09/24 06:34:12;;;;;;;4.22;1.92;;;12.40;61.60;;;;;;5054423;28;20573;-78
2022/09/24 06:36:39;;;;;;;5.78;1.38;;;12.50;61.80;;;;;;5054533;28;20033;-78
2022/09/24 06:39:08;;;;;;;5.15;1.20;;;12.50;61.80;;;;;;5056312;28;20035;-78
2022/09/24 06:41:34;;;;;;;3.25;1.10;;;12.60;62.00;;;;;;5049785;28;20052;-77
2022/09/24 06:44:00;;;;;;;4.75;1.73;;;12.60;61.90;;;;;;5049318;28;20025;-79
2022/09/24 06:46:26;;;;;;;4.68;1.20;;;12.60;61.80;;;;;;5048938;28;20043;-79
2022/09/24 06:48:54;;;;;;;6.45;1.40;;;12.70;61.90;;;;;;5052803;28;20028;-78
2022/09/24 06:51:21;;;;;;;7.28;1.20;;;12.80;62.00;;;;;;5062514;28;20066;-78
2022/09/24 06:53:52;;;;;;;4.22;1.35;;;12.80;61.90;;;;;;5051370;28;20017;-78
2022/09/24 06:56:19;;;;;;;5.03;1.13;;;12.90;62.00;;;;;;5052103;28;20946;-79
2022/09/24 06:58:45;;;;;;;4.43;0.70;;;13.00;62.10;;;;;;5052896;28;20028;-79
2022/09/24 07:01:12;;;;;;;7.22;1.25;;;13.10;62.20;;;;;;5050967;28;20020;-79
2022/09/24 07:03:38;;;;;;;4.25;1.10;;;13.10;62.00;;;;;;5015693;28;20049;-79
2022/09/24 07:06:05;;;;;;;5.07;0.93;;;13.20;62.10;;;;;;5049963;28;20870;-78
2022/09/24 07:08:32;;;;;;;5.22;1.60;;;13.30;62.10;;;;;;5046389;28;20025;-80
2022/09/24 07:10:59;;;;;;;5.40;0.95;;;13.40;62.20;;;;;;5048219;28;20044;-78
2022/09/24 07:13:27;;;;;;;3.40;0.95;;;13.40;62.00;;;;;;5048020;28;20099;-76
2022/09/24 07:15:53;;;;;;;5.35;1.15;;;13.50;62.10;;;;;;5046097;28;20021;-77
2022/09/24 07:18:20;;;;;;;6.47;1.73;;;13.60;62.20;;;;;;5043857;28;20040;-76
2022/09/24 07:20:54;;;;;;;7.18;1.65;;;13.70;62.20;;;;;;5047358;28;20446;-79
2022/09/24 07:23:20;;;;;;;6.10;1.30;;;13.70;62.10;;;;;;5047723;28;20021;-77
2022/09/24 07:25:46;;;;;;;5.47;2.58;;;13.70;61.90;;;;;;5048610;28;20025;-76
2022/09/24 07:28:16;;;;;;;7.07;2.60;;;13.80;62.00;;;;;;5045286;28;20024;-78
2022/09/24 07:30:42;;;;;;;5.88;1.63;;;13.90;62.00;;;;;;5058186;28;20021;-78
2022/09/24 07:33:08;;;;;;;6.25;1.73;;;14.00;62.10;;;;;;5045117;28;20145;-79
2022/09/24 07:35:37;;;;;;;4.65;1.08;;;14.00;62.00;;;;;;5047571;28;20110;-77
2022/09/24 07:38:06;;;;;;;8.10;1.08;;;14.10;62.10;;;;;;5042838;28;20032;-79
2022/09/24 07:40:32;;;;;;;4.20;1.10;;;14.10;61.90;;;;;;5045419;28;20083;-77
2022/09/24 07:43:00;;;;;;;7.65;1.50;;;14.20;61.90;;;;;;5045366;28;20037;-79
2022/09/24 07:45:28;;;;;;;6.00;1.15;;;14.30;62.30;;;;;;5042071;28;20083;-77
2022/09/24 07:48:02;;;;;;;9.52;1.83;;;14.40;62.00;;;;;;5047106;28;20497;-78
2022/09/24 07:50:31;;;;;;;3.55;1.27;;;14.40;61.80;;;;;;5045844;28;20044;-78
2022/09/24 07:52:58;;;;;;;12.38;2.20;;;14.60;61.90;;;;;;5046612;28;20408;-78
2022/09/24 07:55:24;;;;;;;4.22;1.60;;;14.60;61.70;;;;;;5047424;28;20029;-79
2022/09/24 07:57:53;;;;;;;4.95;1.27;;;14.70;61.60;;;;;;5050364;28;20055;-76
2022/09/24 08:00:21;;;;;;;7.22;1.45;;;14.80;61.60;;;;;;5053724;28;20040;-76
2022/09/24 08:02:47;;;;;;;3.65;1.05;;;14.90;61.50;;;;;;5047037;28;20037;-80
2022/09/24 08:05:14;;;;;;;3.50;0.82;;;14.90;61.20;;;;;;5051631;28;20032;-77
2022/09/24 08:07:41;;;;;;;4.55;1.00;;;15.00;61.20;;;;;;5048194;28;20033;-79
2022/09/24 08:10:08;;;;;;;5.13;1.40;;;15.10;61.10;;;;;;5047563;28;20033;-76
2022/09/24 08:12:34;;;;;;;5.35;1.08;;;15.20;61.00;;;;;;5039395;28;20033;-77
2022/09/24 08:15:00;;;;;;;7.43;2.67;;;15.30;61.00;;;;;;5055535;28;20040;-80
2022/09/24 08:17:26;;;;;;;4.00;1.35;;;15.40;60.90;;;;;;5028588;28;20329;-76
2022/09/24 08:19:55;;;;;;;6.93;1.83;;;15.50;60.90;;;;;;5043095;28;20033;-76
2022/09/24 08:22:23;;;;;;;5.78;1.35;;;15.60;60.90;;;;;;5047114;28;20033;-77
2022/09/24 08:24:49;;;;;;;7.93;1.77;;;15.60;60.60;;;;;;5045722;28;20505;-77
2022/09/24 08:27:18;;;;;;;2.65;0.98;;;15.70;60.60;;;;;;5039358;28;20977;-75
2022/09/24 08:29:44;;;;;;;6.47;1.40;;;15.90;60.70;;;;;;5046300;28;20025;-77
2022/09/24 08:32:12;;;;;;;4.57;1.17;;;15.90;60.40;;;;;;5029994;28;20059;-76
2022/09/24 08:34:39;;;;;;;4.25;1.45;;;16.00;60.40;;;;;;5053524;28;20025;-75
2022/09/24 08:37:08;;;;;;;7.78;2.35;;;16.10;60.30;;;;;;5042617;28;20085;-75
2022/09/24 08:39:34;;;;;;;5.55;1.70;;;16.30;60.30;;;;;;5045238;28;20071;-75
2022/09/24 08:42:14;;;;;;;10.07;1.40;;;16.30;60.10;;;;;;5047144;28;20055;-76
2022/09/24 08:47:44;;;;;;;4.82;1.30;;;16.60;60.10;;;;;;5041185;28;20464;-76
2022/09/24 08:50:18;;;;;;;9.45;1.10;;;16.70;59.90;;;;;;5075759;28;20438;-76
2022/09/24 08:52:58;;;;;;;5.40;1.17;;;16.80;59.80;;;;;;5052344;28;20455;-76
2022/09/24 08:55:34;;;;;;;7.65;1.55;;;16.90;59.70;;;;;;5049829;28;20411;-78
2022/09/24 08:58:08;;;;;;;4.65;1.00;;;17.00;59.60;;;;;;5050170;28;20032;-77
2022/09/24 09:00:44;;;;;;;4.63;1.20;;;17.10;59.40;;;;;;5045027;28;20025;-76
2022/09/24 09:03:31;;;;;;;5.47;1.00;;;17.20;59.20;;;;;;5062760;28;20038;-76
2022/09/24 09:06:05;;;;;;;6.65;1.42;;;17.40;59.10;;;;;;5047118;28;20041;-75
2022/09/24 09:08:43;;;;;;;6.70;2.17;;;17.50;59.00;;;;;;5025218;28;20036;-76
2022/09/24 09:11:13;;;;;;;3.65;1.05;;;17.60;58.80;;;;;;5044715;28;20033;-76
2022/09/24 09:13:53;;;;;;;2.58;0.73;;;17.60;58.50;;;;;;5047468;28;20272;-76
2022/09/24 09:16:28;;;;;;;4.22;1.52;;;17.70;58.40;;;;;;5052854;28;20036;-76
2022/09/24 09:19:07;;;;;;;3.78;0.90;;;17.80;58.30;;;;;;5047337;28;20036;-75
2022/09/24 09:21:51;;;;;;;7.38;2.00;;;17.90;57.90;;;;;;5042456;28;20037;-76
2022/09/24 09:24:26;;;;;;;3.88;0.90;;;18.00;57.70;;;;;;5015567;28;20025;-76
2022/09/24 09:26:55;;;;;;;3.65;1.00;;;18.10;57.40;;;;;;5056722;28;20028;-76
2022/09/24 09:29:24;;;;;;;4.75;1.63;;;18.10;57.10;;;;;;5045321;28;20436;-76
2022/09/24 09:32:11;;;;;;;3.35;0.93;;;18.20;56.90;;;;;;5022640;28;20353;-77
2022/09/24 09:34:46;;;;;;;3.67;1.00;;;18.30;56.40;;;;;;5044078;28;20040;-76
2022/09/24 09:37:46;;;;;;;7.85;2.33;;;18.30;56.10;;;;;;5049330;28;20509;-76
2022/09/24 09:40:36;;;;;;;4.78;1.08;;;18.40;55.80;;;;;;5047176;28;20028;-75
2022/09/24 09:43:07;;;;;;;3.58;0.80;;;18.40;55.70;;;;;;5038381;28;20122;-76
2022/09/24 09:46:15;;;;;;;5.75;1.27;;;18.40;55.90;;;;;;5038391;28;20138;-76
2022/09/24 09:48:54;;;;;;;4.95;1.00;;;18.40;55.30;;;;;;5041457;28;20047;-76
2022/09/24 09:51:24;;;;;;;4.45;0.88;;;18.40;55.50;;;;;;5046844;28;20181;-82
2022/09/24 09:53:58;;;;;;;5.53;1.63;;;18.40;55.50;;;;;;5037773;28;20048;-76
2022/09/24 09:56:35;;;;;;;7.00;1.63;;;18.50;55.70;;;;;;5046367;28;20144;-76
2022/09/24 09:59:08;;;;;;;5.20;1.48;;;18.50;55.60;;;;;;5047396;28;20070;-79
2022/09/24 10:01:36;;;;;;;6.78;1.73;;;18.60;55.60;;;;;;5028265;28;20102;-78
2022/09/24 10:04:03;;;;;;;7.72;1.63;;;18.70;55.80;;;;;;5062381;28;20029;-77
2022/09/24 10:06:35;;;;;;;3.60;1.17;;;18.80;56.30;;;;;;5069221;28;20519;-76
2022/09/24 10:09:21;;;;;;;5.50;1.70;;;18.90;56.30;;;;;;5066743;28;20017;-77
2022/09/24 10:11:48;;;;;;;6.75;1.65;;;19.00;56.10;;;;;;5044618;28;20044;-77
2022/09/24 10:14:17;;;;;;;5.28;1.30;;;19.10;56.20;;;;;;5062197;28;20074;-76
2022/09/24 10:16:46;;;;;;;8.45;2.38;;;19.20;56.20;;;;;;5055281;28;20060;-77
2022/09/24 10:19:23;;;;;;;5.30;1.58;;;19.30;56.10;;;;;;5052353;28;20484;-77
2022/09/24 10:21:50;;;;;;;7.22;2.08;;;19.50;56.10;;;;;;5057645;28;20033;-79
2022/09/24 10:24:21;;;;;;;5.93;1.42;;;19.60;56.00;;;;;;5057196;28;20372;-78
2022/09/24 10:26:48;;;;;;;6.05;1.48;;;19.70;55.70;;;;;;5046186;28;20037;-79
2022/09/24 10:32:28;;;;;;;6.18;1.52;;;20.00;55.10;;;;;;5048680;28;20025;-79
2022/09/24 10:35:17;;;;;;;5.95;1.27;;;20.20;54.70;;;;;;5052007;28;20028;-80
2022/09/24 10:37:54;;;;;;;4.78;1.77;;;20.40;54.70;;;;;;5051576;28;20149;-78
2022/09/24 10:40:24;;;;;;;3.63;1.45;;;20.50;54.20;;;;;;5046584;28;20025;-78
2022/09/24 10:42:57;;;;;;;3.45;1.20;;;20.50;53.90;;;;;;5022341;28;20445;-78
2022/09/24 10:45:39;;;;;;;6.85;1.38;;;20.50;53.50;;;;;;5054842;28;20028;-78
2022/09/24 10:48:23;;;;;;;5.47;1.50;;;20.50;53.30;;;;;;5052832;28;20036;-80
2022/09/24 10:51:17;;;;;;;3.92;0.95;;;20.40;52.90;;;;;;5048173;28;20029;-81
2022/09/24 10:53:51;;;;;;;7.93;1.52;;;20.40;52.60;;;;;;5046494;28;20417;-83
2022/09/24 10:56:40;;;;;;;4.15;1.70;;;20.20;52.70;;;;;;5042297;28;20029;-79
2022/09/24 10:59:25;;;;;;;5.25;1.38;;;20.20;52.50;;;;;;5032925;28;20040;-80
2022/09/24 11:02:19;;;;;;;3.15;1.50;;;20.20;52.60;;;;;;5048225;28;20043;-88
2022/09/24 11:05:04;;;;;;;6.50;2.08;;;20.10;52.00;;;;;;5047706;28;20405;-89
2022/09/24 11:07:51;;;;;;;4.32;1.65;;;20.10;52.00;;;;;;5033939;28;20135;-89
2022/09/24 11:10:50;;;;;;;2.50;1.40;;;20.10;52.00;;;;;;5045299;28;20029;-78
2022/09/24 11:13:39;;;;;;;6.00;1.40;;;20.10;51.70;;;;;;5037702;28;20041;-77
2022/09/24 11:16:34;;;;;;;5.03;1.27;;;20.10;51.50;;;;;;5048475;28;20042;-77
2022/09/24 11:19:17;;;;;;;4.03;1.02;;;20.20;51.60;;;;;;5043556;28;20512;-80
2022/09/24 11:21:46;;;;;;;4.18;1.00;;;20.30;51.50;;;;;;5048490;28;20576;-75
2022/09/24 11:24:30;;;;;;;6.57;1.23;;;20.30;51.50;;;;;;5048670;28;20528;-75
2022/09/24 11:27:10;;;;;;;2.03;1.27;;;20.40;50.90;;;;;;5048181;28;20040;-75
2022/09/24 11:29:54;;;;;;;4.20;0.98;;;20.50;51.00;;;;;;5039216;28;20024;-75
2022/09/24 11:32:50;;;;;;;5.15;1.50;;;20.50;50.80;;;;;;5028046;28;20055;-75
2022/09/24 11:35:22;;;;;;;2.15;0.70;;;20.60;50.20;;;;;;5024214;28;20466;-73
2022/09/24 11:38:04;;;;;;;4.03;0.93;;;20.60;50.20;;;;;;5026729;28;20034;-76
2022/09/24 11:41:03;;;;;;;3.88;1.23;;;20.60;49.90;;;;;;5038360;28;20038;-75
2022/09/24 11:44:00;;;;;;;3.95;1.38;;;20.70;49.50;;;;;;5054367;28;20062;-74
2022/09/24 11:46:55;;;;;;;2.67;1.05;;;20.70;49.30;;;;;;5053324;28;20198;-75
2022/09/24 11:49:36;;;;;;;2.53;0.90;;;20.70;48.90;;;;;;5043486;28;20047;-75
2022/09/24 11:52:36;;;;;;;4.78;0.90;;;20.70;49.10;;;;;;5046693;28;20049;-75
2022/09/24 11:55:14;;;;;;;5.20;1.33;;;20.70;48.40;;;;;;5043507;28;20025;-75
2022/09/24 11:58:12;;;;;;;2.42;0.93;;;20.70;48.70;;;;;;5053230;28;20105;-78
2022/09/24 12:00:50;;;;;;;3.17;1.00;;;20.80;48.30;;;;;;5039090;28;20035;-76
2022/09/24 12:03:42;;;;;;;3.58;1.10;;;20.80;48.60;;;;;;5044142;28;20044;-76
2022/09/24 12:06:19;;;;;;;2.35;0.90;;;20.90;48.50;;;;;;5057066;28;20025;-78
2022/09/24 12:09:18;;;;;;;6.05;1.08;;;20.90;48.60;;;;;;5051541;28;20017;-79
2022/09/24 12:12:02;;;;;;;2.38;0.70;;;20.90;48.20;;;;;;5022354;28;20045;-82
2022/09/24 12:14:39;;;;;;;3.00;1.38;;;20.90;48.20;;;;;;5032130;28;20036;-80
2022/09/24 12:17:09;;;;;;;2.67;1.08;;;21.00;48.40;;;;;;5029571;28;20094;-79
2022/09/24 12:19:52;;;;;;;3.25;1.02;;;20.90;48.20;;;;;;5051013;28;20342;-79
2022/09/24 12:22:21;;;;;;;2.78;0.80;;;21.00;48.10;;;;;;5048297;28;20520;-79
2022/09/24 12:24:53;;;;;;;3.20;0.98;;;21.00;48.30;;;;;;5039675;28;20021;-80
2022/09/24 12:27:33;;;;;;;3.50;1.27;;;21.00;48.20;;;;;;5033151;28;20321;-76
2022/09/24 12:33:12;;;;;;;2.97;0.90;;;21.10;48.20;;;;;;5047683;28;20492;-80
2022/09/24 12:36:12;;;;;;;2.90;1.17;;;21.10;48.20;;;;;;5045299;28;20013;-79
2022/09/24 12:38:50;;;;;;;3.83;1.13;;;21.20;48.20;;;;;;5047242;28;20156;-78
2022/09/24 12:41:31;;;;;;;2.78;0.70;;;21.30;48.30;;;;;;5047499;28;20045;-79
2022/09/24 12:44:09;;;;;;;2.95;0.70;;;21.40;48.20;;;;;;5057241;28;20057;-77
2022/09/24 12:46:51;;;;;;;3.42;0.60;;;21.40;47.90;;;;;;5054912;28;20041;-79
2022/09/24 12:49:23;;;;;;;1.48;0.65;;;21.40;47.90;;;;;;5043825;28;20028;-78
2022/09/24 12:51:52;;;;;;;3.30;0.70;;;21.50;48.00;;;;;;5056284;28;20041;-79
2022/09/24 12:54:34;;;;;;;1.33;0.60;;;21.60;48.20;;;;;;5047657;28;20482;-78
2022/09/24 12:57:14;;;;;;;2.60;0.63;;;21.70;47.90;;;;;;5045050;28;20042;-79
2022/09/24 12:59:55;;;;;;;1.77;0.60;;;21.80;47.80;;;;;;5048940;28;20021;-78
2022/09/24 13:02:25;;;;;;;3.95;1.67;;;21.80;47.60;;;;;;5055094;28;20497;-78
2022/09/24 13:05:00;;;;;;;3.65;0.82;;;21.90;47.70;;;;;;5049636;28;20479;-76
2022/09/24 13:07:35;;;;;;;3.45;0.60;;;21.90;47.40;;;;;;5047479;28;20425;-77
2022/09/24 13:10:11;;;;;;;2.08;0.77;;;22.00;47.50;;;;;;5047570;28;20268;-77
2022/09/24 13:12:38;;;;;;;1.98;0.88;;;22.00;47.20;;;;;;5051356;28;20104;-76
2022/09/24 13:15:22;;;;;;;1.42;0.52;;;22.10;47.40;;;;;;5041382;28;20048;-78
2022/09/24 13:18:00;;;;;;;2.28;0.95;;;22.10;47.20;;;;;;5044304;28;20033;-80
2022/09/24 13:20:26;;;;;;;3.30;0.90;;;22.20;47.30;;;;;;5047867;28;20341;-79
2022/09/24 13:23:21;;;;;;;3.33;0.98;;;22.30;47.50;;;;;;5052541;28;20036;-79
2022/09/24 13:26:02;;;;;;;2.42;0.90;;;22.50;47.10;;;;;;5054104;28;20043;-78
2022/09/24 13:28:31;;;;;;;0.80;0.77;;;22.70;47.20;;;;;;5051734;28;20029;-78
2022/09/24 13:31:37;;;;;;;3.03;0.75;;;22.90;47.30;;;;;;5059954;28;20114;-81
2022/09/24 13:34:09;;;;;;;2.15;0.80;;;23.10;46.60;;;;;;5056336;28;20361;-78
2022/09/24 13:36:47;;;;;;;2.70;0.95;;;23.20;46.60;;;;;;5056482;28;20037;-77